sensor_id;sensor_type;location;lat;lon;timestamp;pressure;altitude;pressure_sealevel;temperature;humidity
6387;BME280;3226;42.162;24.756;2024-01-30T00:01:07;101873.41;;;0.22;69.72
6387;BME280;3226;42.162;24.756;2024-01-30T00:03:35;101876.81;;;0.27;70.09
6387;BME280;3226;42.162;24.756;2024-01-30T00:06:05;101846.00;;;0.01;70.07
6387;BME280;3226;42.162;24.756;2024-01-30T00:08:33;101882.84;;;0.14;70.36
6387;BME280;3226;42.162;24.756;2024-01-30T00:11:01;101882.84;;;0.14;70.07
6387;BME280;3226;42.162;24.756;2024-01-30T00:13:29;101890.59;;;0.14;71.23
6387;BME280;3226;42.162;24.756;2024-01-30T00:15:57;101887.19;;;0.10;70.18
6387;BME280;3226;42.162;24.756;2024-01-30T00:18:25;101888.03;;;0.08;70.60
6387;BME280;3226;42.162;24.756;2024-01-30T00:20:53;101889.75;;;0.10;71.75
6387;BME280;3226;42.162;24.756;2024-01-30T00:23:23;101889.78;;;0.03;71.82
6387;BME280;3226;42.162;24.756;2024-01-30T00:25:51;101886.31;;;0.07;71.58
6387;BME280;3226;42.162;24.756;2024-01-30T00:28:18;101882.88;;;0.08;71.03
6387;BME280;3226;42.162;24.756;2024-01-30T00:30:46;101881.19;;;0.04;70.69
6387;BME280;3226;42.162;24.756;2024-01-30T00:33:14;101878.59;;;0.05;70.52
6387;BME280;3226;42.162;24.756;2024-01-30T00:35:43;101891.50;;;0.02;70.78
6387;BME280;3226;42.162;24.756;2024-01-30T00:38:11;101859.78;;;-0.22;71.38
6387;BME280;3226;42.162;24.756;2024-01-30T00:40:40;101892.34;;;0.03;71.30
6387;BME280;3226;42.162;24.756;2024-01-30T00:43:08;101889.75;;;0.09;71.01
6387;BME280;3226;42.162;24.756;2024-01-30T00:45:36;101893.19;;;0.08;70.86
6387;BME280;3226;42.162;24.756;2024-01-30T00:48:04;101890.59;;;0.08;71.50
6387;BME280;3226;42.162;24.756;2024-01-30T00:50:32;101891.50;;;0.01;71.68
6387;BME280;3226;42.162;24.756;2024-01-30T00:53:01;101894.94;;;-0.05;73.04
6387;BME280;3226;42.162;24.756;2024-01-30T00:55:28;101882.06;;;-0.15;73.51
6387;BME280;3226;42.162;24.756;2024-01-30T00:57:58;101870.06;;;-0.23;73.46
6387;BME280;3226;42.162;24.756;2024-01-30T01:00:26;101846.94;;;-0.45;74.13
6387;BME280;3226;42.162;24.756;2024-01-30T01:02:56;101887.25;;;-0.28;74.20
6387;BME280;3226;42.162;24.756;2024-01-30T01:05:24;101887.28;;;-0.30;74.36
6387;BME280;3226;42.162;24.756;2024-01-30T01:07:52;101886.41;;;-0.23;73.28
6387;BME280;3226;42.162;24.756;2024-01-30T01:10:20;101884.69;;;-0.35;74.29
6387;BME280;3226;42.162;24.756;2024-01-30T01:12:49;101886.41;;;-0.48;74.44
6387;BME280;3226;42.162;24.756;2024-01-30T01:15:19;101885.56;;;-0.47;75.56
6387;BME280;3226;42.162;24.756;2024-01-30T01:17:47;101866.69;;;-0.60;76.17
6387;BME280;3226;42.162;24.756;2024-01-30T01:20:15;101876.13;;;-0.59;77.75
6387;BME280;3226;42.162;24.756;2024-01-30T01:22:43;101875.28;;;-0.76;78.03
6387;BME280;3226;42.162;24.756;2024-01-30T01:25:11;101867.53;;;-0.81;78.29
6387;BME280;3226;42.162;24.756;2024-01-30T01:27:39;101858.97;;;-0.92;80.02
6387;BME280;3226;42.162;24.756;2024-01-30T01:30:10;101859.81;;;-0.98;79.96
6387;BME280;3226;42.162;24.756;2024-01-30T01:32:42;101853.81;;;-1.02;82.54
6387;BME280;3226;42.162;24.756;2024-01-30T01:35:16;101859.81;;;-0.99;82.73
6387;BME280;3226;42.162;24.756;2024-01-30T01:37:45;101853.81;;;-1.03;83.33
6387;BME280;3226;42.162;24.756;2024-01-30T01:40:12;101858.94;;;-1.19;82.72
6387;BME280;3226;42.162;24.756;2024-01-30T01:42:40;101862.38;;;-1.23;83.45
6387;BME280;3226;42.162;24.756;2024-01-30T01:45:09;101858.03;;;-1.39;83.66
6387;BME280;3226;42.162;24.756;2024-01-30T01:47:37;101855.34;;;-1.67;85.83
6387;BME280;3226;42.162;24.756;2024-01-30T01:50:07;101864.78;;;-1.71;86.14
6387;BME280;3226;42.162;24.756;2024-01-30T01:52:36;101865.66;;;-1.61;86.21
6387;BME280;3226;42.162;24.756;2024-01-30T01:55:05;101861.38;;;-1.64;86.91
6387;BME280;3226;42.162;24.756;2024-01-30T01:57:34;101869.91;;;-1.74;87.23
6387;BME280;3226;42.162;24.756;2024-01-30T02:00:02;101859.56;;;-1.83;88.24
6387;BME280;3226;42.162;24.756;2024-01-30T02:02:35;101862.06;;;-2.00;90.00
6387;BME280;3226;42.162;24.756;2024-01-30T02:05:04;101864.69;;;-1.94;91.13
6387;BME280;3226;42.162;24.756;2024-01-30T02:07:33;101869.88;;;-1.79;90.55
6387;BME280;3226;42.162;24.756;2024-01-30T02:10:01;101869.03;;;-1.75;90.33
6387;BME280;3226;42.162;24.756;2024-01-30T02:12:30;101866.50;;;-1.67;89.85
6387;BME280;3226;42.162;24.756;2024-01-30T02:14:58;101860.47;;;-1.73;89.77
6387;BME280;3226;42.162;24.756;2024-01-30T02:17:26;101866.47;;;-1.75;90.68
6387;BME280;3226;42.162;24.756;2024-01-30T02:19:54;101863.91;;;-1.68;91.00
6387;BME280;3226;42.162;24.756;2024-01-30T02:22:24;101863.84;;;-1.82;91.61
6387;BME280;3226;42.162;24.756;2024-01-30T02:24:52;101869.81;;;-1.93;93.28
6387;BME280;3226;42.162;24.756;2024-01-30T02:27:20;101874.91;;;-2.02;93.37
6387;BME280;3226;42.162;24.756;2024-01-30T02:29:48;101878.19;;;-2.25;93.71
6387;BME280;3226;42.162;24.756;2024-01-30T02:32:16;101846.34;;;-2.53;94.03
6387;BME280;3226;42.162;24.756;2024-01-30T02:34:44;101882.38;;;-2.35;94.07
6387;BME280;3226;42.162;24.756;2024-01-30T02:37:12;101884.81;;;-2.52;94.46
6387;BME280;3226;42.162;24.756;2024-01-30T02:39:41;101868.56;;;-2.58;95.85
6387;BME280;3226;42.162;24.756;2024-01-30T02:42:09;101885.69;;;-2.54;96.87
6387;BME280;3226;42.162;24.756;2024-01-30T02:44:37;101888.22;;;-2.56;97.85
6387;BME280;3226;42.162;24.756;2024-01-30T02:47:05;101890.06;;;-2.39;97.03
6387;BME280;3226;42.162;24.756;2024-01-30T02:49:33;101892.63;;;-2.41;96.64
6387;BME280;3226;42.162;24.756;2024-01-30T02:52:01;101891.63;;;-2.57;97.91
6387;BME280;3226;42.162;24.756;2024-01-30T02:54:29;101890.78;;;-2.57;98.67
6387;BME280;3226;42.162;24.756;2024-01-30T02:56:59;101892.56;;;-2.50;98.83
6387;BME280;3226;42.162;24.756;2024-01-30T02:59:27;101899.50;;;-2.34;98.23
6387;BME280;3226;42.162;24.756;2024-01-30T03:01:55;101882.47;;;-2.28;97.96
6387;BME280;3226;42.162;24.756;2024-01-30T03:04:23;101895.31;;;-2.21;97.51
6387;BME280;3226;42.162;24.756;2024-01-30T03:06:51;101891.81;;;-2.30;97.67
6387;BME280;3226;42.162;24.756;2024-01-30T03:09:19;101890.97;;;-2.31;97.39
6387;BME280;3226;42.162;24.756;2024-01-30T03:11:47;101860.03;;;-2.54;97.28
6387;BME280;3226;42.162;24.756;2024-01-30T03:14:17;101890.97;;;-2.34;97.54
6387;BME280;3226;42.162;24.756;2024-01-30T03:16:44;101854.88;;;-2.57;97.45
6387;BME280;3226;42.162;24.756;2024-01-30T03:19:12;101892.66;;;-2.36;97.34
6387;BME280;3226;42.162;24.756;2024-01-30T03:21:40;101888.38;;;-2.36;97.29
6387;BME280;3226;42.162;24.756;2024-01-30T03:24:08;101886.69;;;-2.32;96.80
6387;BME280;3226;42.162;24.756;2024-01-30T03:26:37;101860.03;;;-2.51;97.86
6387;BME280;3226;42.162;24.756;2024-01-30T03:29:05;101882.50;;;-2.22;97.46
6387;BME280;3226;42.162;24.756;2024-01-30T03:31:34;101881.66;;;-2.16;96.59
6387;BME280;3226;42.162;24.756;2024-01-30T03:34:02;101881.75;;;-1.99;96.45
6387;BME280;3226;42.162;24.756;2024-01-30T03:36:30;101847.41;;;-2.19;95.77
6387;BME280;3226;42.162;24.756;2024-01-30T03:38:59;101877.50;;;-1.93;94.35
6387;BME280;3226;42.162;24.756;2024-01-30T03:41:27;101868.13;;;-1.92;93.47
6387;BME280;3226;42.162;24.756;2024-01-30T03:43:55;101878.41;;;-1.81;92.96
6387;BME280;3226;42.162;24.756;2024-01-30T03:46:23;101877.59;;;-1.76;93.25
6387;BME280;3226;42.162;24.756;2024-01-30T03:48:53;101878.47;;;-1.73;93.22
6387;BME280;3226;42.162;24.756;2024-01-30T03:51:21;101876.78;;;-1.70;93.35
6387;BME280;3226;42.162;24.756;2024-01-30T03:53:49;101879.34;;;-1.67;93.67
6387;BME280;3226;42.162;24.756;2024-01-30T03:56:17;101881.91;;;-1.68;92.73
6387;BME280;3226;42.162;24.756;2024-01-30T03:58:45;101885.34;;;-1.66;92.59
6387;BME280;3226;42.162;24.756;2024-01-30T04:01:14;101882.78;;;-1.63;94.29
6387;BME280;3226;42.162;24.756;2024-01-30T04:03:42;101877.66;;;-1.60;95.18
6387;BME280;3226;42.162;24.756;2024-01-30T04:06:12;101839.69;;;-2.23;95.98
6387;BME280;3226;42.162;24.756;2024-01-30T04:08:40;101882.69;;;-1.91;96.90
6387;BME280;3226;42.162;24.756;2024-01-30T04:11:08;101842.41;;;-1.97;95.96
6387;BME280;3226;42.162;24.756;2024-01-30T04:13:36;101884.47;;;-1.71;95.79
6387;BME280;3226;42.162;24.756;2024-01-30T04:16:05;101882.78;;;-1.62;95.78
6387;BME280;3226;42.162;24.756;2024-01-30T04:18:33;101884.50;;;-1.70;96.15
6387;BME280;3226;42.162;24.756;2024-01-30T04:21:01;101877.63;;;-1.69;95.86
6387;BME280;3226;42.162;24.756;2024-01-30T04:23:30;101875.00;;;-1.82;96.58
6387;BME280;3226;42.162;24.756;2024-01-30T04:25:58;101886.13;;;-1.83;96.28
6387;BME280;3226;42.162;24.756;2024-01-30T04:28:26;101880.97;;;-1.84;97.43
6387;BME280;3226;42.162;24.756;2024-01-30T04:30:54;101886.19;;;-1.67;98.46
6387;BME280;3226;42.162;24.756;2024-01-30T04:33:22;101859.47;;;-2.04;98.58
6387;BME280;3226;42.162;24.756;2024-01-30T04:35:50;101887.75;;;-2.00;98.71
6387;BME280;3226;42.162;24.756;2024-01-30T04:38:18;101892.09;;;-1.93;98.97
6387;BME280;3226;42.162;24.756;2024-01-30T04:40:47;101898.81;;;-2.11;99.03
6387;BME280;3226;42.162;24.756;2024-01-30T04:43:15;101913.38;;;-2.07;98.63
6387;BME280;3226;42.162;24.756;2024-01-30T04:45:43;101907.41;;;-2.07;99.41
6387;BME280;3226;42.162;24.756;2024-01-30T04:48:11;101908.34;;;-1.93;99.46
6387;BME280;3226;42.162;24.756;2024-01-30T04:50:40;101905.78;;;-1.90;99.61
6387;BME280;3226;42.162;24.756;2024-01-30T04:53:08;101917.75;;;-1.95;99.65
6387;BME280;3226;42.162;24.756;2024-01-30T04:55:36;101907.50;;;-1.93;99.35
6387;BME280;3226;42.162;24.756;2024-01-30T04:58:05;101894.59;;;-1.99;99.24
6387;BME280;3226;42.162;24.756;2024-01-30T05:00:33;101921.22;;;-1.83;98.50
6387;BME280;3226;42.162;24.756;2024-01-30T05:03:02;101918.75;;;-1.65;98.22
6387;BME280;3226;42.162;24.756;2024-01-30T05:05:30;101916.19;;;-1.65;96.95
6387;BME280;3226;42.162;24.756;2024-01-30T05:07:58;101916.22;;;-1.62;97.43
6387;BME280;3226;42.162;24.756;2024-01-30T05:10:26;101918.78;;;-1.62;97.39
6387;BME280;3226;42.162;24.756;2024-01-30T05:12:55;101927.25;;;-1.80;98.07
6387;BME280;3226;42.162;24.756;2024-01-30T05:15:24;101924.63;;;-1.87;98.97
6387;BME280;3226;42.162;24.756;2024-01-30T05:17:52;101868.03;;;-2.05;98.77
6387;BME280;3226;42.162;24.756;2024-01-30T05:20:22;101903.31;;;-1.72;98.61
6387;BME280;3226;42.162;24.756;2024-01-30T05:22:50;101899.91;;;-1.62;98.15
6387;BME280;3226;42.162;24.756;2024-01-30T05:25:19;101917.09;;;-1.53;97.69
6387;BME280;3226;42.162;24.756;2024-01-30T05:27:47;101912.00;;;-1.39;97.36
6387;BME280;3226;42.162;24.756;2024-01-30T05:30:16;101915.44;;;-1.31;98.41
6387;BME280;3226;42.162;24.756;2024-01-30T05:32:46;101852.75;;;-1.77;97.28
6387;BME280;3226;42.162;24.756;2024-01-30T05:35:17;101911.16;;;-1.37;97.67
6387;BME280;3226;42.162;24.756;2024-01-30T05:37:45;101918.91;;;-1.26;97.57
6387;BME280;3226;42.162;24.756;2024-01-30T05:40:13;101898.31;;;-1.35;96.69
6387;BME280;3226;42.162;24.756;2024-01-30T05:42:41;101894.81;;;-1.56;96.85
6387;BME280;3226;42.162;24.756;2024-01-30T05:45:09;101929.09;;;-1.54;97.83
6387;BME280;3226;42.162;24.756;2024-01-30T05:47:37;101929.94;;;-1.50;97.66
6387;BME280;3226;42.162;24.756;2024-01-30T05:50:07;101920.59;;;-1.34;95.96
6387;BME280;3226;42.162;24.756;2024-01-30T05:52:35;101926.53;;;-1.51;96.25
6387;BME280;3226;42.162;24.756;2024-01-30T05:55:04;101917.88;;;-1.68;96.38
6387;BME280;3226;42.162;24.756;2024-01-30T05:57:32;101913.59;;;-1.69;97.40
6387;BME280;3226;42.162;24.756;2024-01-30T06:00:00;101923.09;;;-1.51;97.13
6387;BME280;3226;42.162;24.756;2024-01-30T06:02:28;101922.25;;;-1.47;96.77
6387;BME280;3226;42.162;24.756;2024-01-30T06:04:56;101867.28;;;-1.85;96.57
6387;BME280;3226;42.162;24.756;2024-01-30T06:07:26;101878.44;;;-1.78;97.36
6387;BME280;3226;42.162;24.756;2024-01-30T06:09:56;101922.31;;;-1.24;97.25
6387;BME280;3226;42.162;24.756;2024-01-30T06:12:24;101926.63;;;-1.31;96.74
6387;BME280;3226;42.162;24.756;2024-01-30T06:14:52;101927.44;;;-1.36;96.74
6387;BME280;3226;42.162;24.756;2024-01-30T06:17:23;101916.28;;;-1.38;96.92
6387;BME280;3226;42.162;24.756;2024-01-30T06:19:51;101936.81;;;-1.46;97.22
6387;BME280;3226;42.162;24.756;2024-01-30T06:22:19;101936.81;;;-1.49;98.58
6387;BME280;3226;42.162;24.756;2024-01-30T06:24:49;101935.97;;;-1.48;98.65
6387;BME280;3226;42.162;24.756;2024-01-30T06:27:17;101890.47;;;-1.66;98.47
6387;BME280;3226;42.162;24.756;2024-01-30T06:29:45;101931.69;;;-1.46;99.00
6387;BME280;3226;42.162;24.756;2024-01-30T06:32:14;101935.91;;;-1.57;99.03
6387;BME280;3226;42.162;24.756;2024-01-30T06:34:42;101894.66;;;-1.85;99.67
6387;BME280;3226;42.162;24.756;2024-01-30T06:37:11;101922.16;;;-1.75;99.62
6387;BME280;3226;42.162;24.756;2024-01-30T06:39:39;101916.13;;;-1.77;99.40
6387;BME280;3226;42.162;24.756;2024-01-30T06:42:08;101940.34;;;-1.28;98.77
6387;BME280;3226;42.162;24.756;2024-01-30T06:44:37;101894.75;;;-1.68;97.23
6387;BME280;3226;42.162;24.756;2024-01-30T06:47:05;101933.31;;;-1.62;97.99
6387;BME280;3226;42.162;24.756;2024-01-30T06:49:33;101933.38;;;-1.59;98.70
6387;BME280;3226;42.162;24.756;2024-01-30T06:52:02;101920.50;;;-1.61;98.84
6387;BME280;3226;42.162;24.756;2024-01-30T06:54:30;101945.41;;;-1.46;97.82
6387;BME280;3226;42.162;24.756;2024-01-30T06:56:59;101929.94;;;-1.58;97.63
6387;BME280;3226;42.162;24.756;2024-01-30T06:59:29;101945.44;;;-1.36;97.67
6387;BME280;3226;42.162;24.756;2024-01-30T07:01:57;101902.47;;;-1.65;97.00
6387;BME280;3226;42.162;24.756;2024-01-30T07:04:25;101948.03;;;-1.35;96.01
6387;BME280;3226;42.162;24.756;2024-01-30T07:06:54;101951.50;;;-1.19;96.45
6387;BME280;3226;42.162;24.756;2024-01-30T07:09:22;101945.56;;;-0.96;95.84
6387;BME280;3226;42.162;24.756;2024-01-30T07:11:50;101955.88;;;-0.82;94.96
6387;BME280;3226;42.162;24.756;2024-01-30T07:14:18;101945.59;;;-0.76;95.00
6387;BME280;3226;42.162;24.756;2024-01-30T07:16:47;101914.72;;;-0.79;93.28
6387;BME280;3226;42.162;24.756;2024-01-30T07:19:15;101919.00;;;-0.79;93.16
6387;BME280;3226;42.162;24.756;2024-01-30T07:21:45;101895.84;;;-0.78;93.12
6387;BME280;3226;42.162;24.756;2024-01-30T07:24:17;101937.88;;;-0.62;90.96
6387;BME280;3226;42.162;24.756;2024-01-30T07:26:45;101941.34;;;-0.55;91.09
6387;BME280;3226;42.162;24.756;2024-01-30T07:29:13;101948.22;;;-0.40;90.35
6387;BME280;3226;42.162;24.756;2024-01-30T07:31:41;101870.09;;;-1.03;88.68
6387;BME280;3226;42.162;24.756;2024-01-30T07:34:11;101934.44;;;-0.82;89.61
6387;BME280;3226;42.162;24.756;2024-01-30T07:36:39;101957.63;;;-0.53;89.71
6387;BME280;3226;42.162;24.756;2024-01-30T07:39:07;101954.22;;;-0.52;90.24
6387;BME280;3226;42.162;24.756;2024-01-30T07:41:36;101950.78;;;-0.35;89.57
6387;BME280;3226;42.162;24.756;2024-01-30T07:44:04;101959.34;;;-0.22;90.25
6387;BME280;3226;42.162;24.756;2024-01-30T07:46:32;101959.34;;;-0.15;89.71
6387;BME280;3226;42.162;24.756;2024-01-30T07:49:00;101953.38;;;-0.29;88.43
6387;BME280;3226;42.162;24.756;2024-01-30T07:51:30;101925.91;;;-0.41;89.27
6387;BME280;3226;42.162;24.756;2024-01-30T07:53:59;101948.19;;;-0.34;90.26
6387;BME280;3226;42.162;24.756;2024-01-30T07:56:27;101951.63;;;-0.35;90.89
6387;BME280;3226;42.162;24.756;2024-01-30T07:58:55;101931.88;;;-0.40;90.98
6387;BME280;3226;42.162;24.756;2024-01-30T08:01:23;101957.66;;;-0.11;89.61
6387;BME280;3226;42.162;24.756;2024-01-30T08:03:51;101920.75;;;-0.41;88.83
6387;BME280;3226;42.162;24.756;2024-01-30T08:06:19;101949.91;;;0.00;87.29
6387;BME280;3226;42.162;24.756;2024-01-30T08:08:49;101911.28;;;-0.14;86.59
6387;BME280;3226;42.162;24.756;2024-01-30T08:11:20;101929.28;;;0.03;84.92
6387;BME280;3226;42.162;24.756;2024-01-30T08:13:52;101949.91;;;-0.08;83.93
6387;BME280;3226;42.162;24.756;2024-01-30T08:16:20;101949.91;;;-0.19;83.40
6387;BME280;3226;42.162;24.756;2024-01-30T08:18:48;101954.19;;;-0.02;83.28
6387;BME280;3226;42.162;24.756;2024-01-30T08:21:16;101949.03;;;0.01;82.57
6387;BME280;3226;42.162;24.756;2024-01-30T08:23:44;101929.25;;;0.08;79.81
6387;BME280;3226;42.162;24.756;2024-01-30T08:26:13;101938.69;;;0.20;79.72
6387;BME280;3226;42.162;24.756;2024-01-30T08:28:42;101929.25;;;0.20;80.43
6387;BME280;3226;42.162;24.756;2024-01-30T08:31:10;101948.97;;;0.31;80.15
6387;BME280;3226;42.162;24.756;2024-01-30T08:33:38;101948.84;;;0.63;78.75
6387;BME280;3226;42.162;24.756;2024-01-30T08:36:09;101935.03;;;0.75;79.08
6387;BME280;3226;42.162;24.756;2024-01-30T08:38:39;101938.50;;;0.76;77.56
6387;BME280;3226;42.162;24.756;2024-01-30T08:41:07;101894.72;;;0.57;76.53
6387;BME280;3226;42.162;24.756;2024-01-30T08:43:37;101922.94;;;0.93;75.69
6387;BME280;3226;42.162;24.756;2024-01-30T08:46:05;101950.16;;;1.42;73.48
6387;BME280;3226;42.162;24.756;2024-01-30T08:48:33;101944.09;;;1.41;72.83
6387;BME280;3226;42.162;24.756;2024-01-30T08:51:01;101930.31;;;1.44;72.46
6387;BME280;3226;42.162;24.756;2024-01-30T08:53:29;101927.53;;;1.67;71.44
6387;BME280;3226;42.162;24.756;2024-01-30T08:55:57;101945.53;;;1.78;69.67
6387;BME280;3226;42.162;24.756;2024-01-30T08:58:26;101936.16;;;1.65;68.79
6387;BME280;3226;42.162;24.756;2024-01-30T09:00:55;101948.06;;;1.84;68.55
6387;BME280;3226;42.162;24.756;2024-01-30T09:03:23;101949.84;;;1.76;68.08
6387;BME280;3226;42.162;24.756;2024-01-30T09:05:51;101947.41;;;1.62;67.68
6387;BME280;3226;42.162;24.756;2024-01-30T09:08:19;101944.69;;;1.73;66.93
6387;BME280;3226;42.162;24.756;2024-01-30T09:10:47;101937.03;;;1.65;66.69
6387;BME280;3226;42.162;24.756;2024-01-30T09:13:16;101900.91;;;1.59;66.20
6387;BME280;3226;42.162;24.756;2024-01-30T09:15:44;101919.00;;;1.62;66.03
6387;BME280;3226;42.162;24.756;2024-01-30T09:18:14;101935.34;;;1.61;66.10
6387;BME280;3226;42.162;24.756;2024-01-30T09:20:42;101937.31;;;1.31;66.25
6387;BME280;3226;42.162;24.756;2024-01-30T09:23:09;101918.38;;;1.32;67.67
6387;BME280;3226;42.162;24.756;2024-01-30T09:25:38;101924.19;;;1.56;67.72
6387;BME280;3226;42.162;24.756;2024-01-30T09:28:06;101929.31;;;1.61;65.95
6387;BME280;3226;42.162;24.756;2024-01-30T09:30:34;101921.41;;;1.79;65.86
6387;BME280;3226;42.162;24.756;2024-01-30T09:33:02;101865.81;;;1.35;65.16
6387;BME280;3226;42.162;24.756;2024-01-30T09:35:32;101914.66;;;1.64;65.65
6387;BME280;3226;42.162;24.756;2024-01-30T09:38:00;101911.91;;;1.81;65.09
6387;BME280;3226;42.162;24.756;2024-01-30T09:40:28;101885.44;;;1.56;64.82
6387;BME280;3226;42.162;24.756;2024-01-30T09:42:56;101911.16;;;1.70;65.01
6387;BME280;3226;42.162;24.756;2024-01-30T09:45:27;101905.00;;;1.82;64.74
6387;BME280;3226;42.162;24.756;2024-01-30T09:47:55;101901.19;;;2.19;63.90
6387;BME280;3226;42.162;24.756;2024-01-30T09:50:23;101875.19;;;2.33;63.39
6387;BME280;3226;42.162;24.756;2024-01-30T09:52:55;101899.06;;;2.52;61.62
6387;BME280;3226;42.162;24.756;2024-01-30T09:55:23;101901.44;;;2.69;61.54
6387;BME280;3226;42.162;24.756;2024-01-30T09:57:52;101893.56;;;2.77;60.55
6387;BME280;3226;42.162;24.756;2024-01-30T10:00:20;101870.59;;;2.53;60.83
6387;BME280;3226;42.162;24.756;2024-01-30T10:02:52;101894.50;;;2.71;61.58
6387;BME280;3226;42.162;24.756;2024-01-30T10:05:26;101886.53;;;2.19;62.25
6387;BME280;3226;42.162;24.756;2024-01-30T10:07:56;101894.81;;;2.46;61.75
6387;BME280;3226;42.162;24.756;2024-01-30T10:10:25;101899.03;;;2.53;62.84
6387;BME280;3226;42.162;24.756;2024-01-30T10:12:54;101880.94;;;2.53;60.44
6387;BME280;3226;42.162;24.756;2024-01-30T10:15:22;101885.16;;;2.60;60.87
6387;BME280;3226;42.162;24.756;2024-01-30T10:17:50;101872.94;;;2.72;60.13
6387;BME280;3226;42.162;24.756;2024-01-30T10:20:18;101883.75;;;2.99;58.91
6387;BME280;3226;42.162;24.756;2024-01-30T10:22:49;101886.13;;;3.13;57.94
6387;BME280;3226;42.162;24.756;2024-01-30T10:25:18;101889.22;;;3.37;57.79
6387;BME280;3226;42.162;24.756;2024-01-30T10:27:46;101887.56;;;3.31;56.81
6387;BME280;3226;42.162;24.756;2024-01-30T10:30:15;101884.91;;;3.34;55.96
6387;BME280;3226;42.162;24.756;2024-01-30T10:32:43;101884.28;;;3.21;57.60
6387;BME280;3226;42.162;24.756;2024-01-30T10:35:11;101883.06;;;2.87;57.44
6387;BME280;3226;42.162;24.756;2024-01-30T10:37:39;101881.28;;;2.89;58.33
6387;BME280;3226;42.162;24.756;2024-01-30T10:40:09;101885.50;;;2.97;57.13
6387;BME280;3226;42.162;24.756;2024-01-30T10:42:43;101872.34;;;3.11;56.71
6387;BME280;3226;42.162;24.756;2024-01-30T10:45:12;101880.28;;;3.00;56.54
6387;BME280;3226;42.162;24.756;2024-01-30T10:47:43;101876.03;;;2.96;55.23
6387;BME280;3226;42.162;24.756;2024-01-30T10:50:11;101876.84;;;2.98;56.48
6387;BME280;3226;42.162;24.756;2024-01-30T10:52:41;101876.25;;;3.38;55.34
6387;BME280;3226;42.162;24.756;2024-01-30T10:55:10;101876.50;;;3.73;54.32
6387;BME280;3226;42.162;24.756;2024-01-30T10:57:38;101871.19;;;3.29;55.14
6387;BME280;3226;42.162;24.756;2024-01-30T11:00:10;101868.47;;;3.38;53.84
6387;BME280;3226;42.162;24.756;2024-01-30T11:02:41;101869.91;;;3.56;53.70
6387;BME280;3226;42.162;24.756;2024-01-30T11:05:10;101867.25;;;3.58;53.15
6387;BME280;3226;42.162;24.756;2024-01-30T11:07:39;101864.56;;;3.64;53.45
6387;BME280;3226;42.162;24.756;2024-01-30T11:10:08;101855.50;;;3.87;52.74
6387;BME280;3226;42.162;24.756;2024-01-30T11:12:40;101825.75;;;3.61;53.21
6387;BME280;3226;42.162;24.756;2024-01-30T11:15:13;101852.84;;;3.90;52.31
6387;BME280;3226;42.162;24.756;2024-01-30T11:17:49;101856.19;;;3.97;52.01
6387;BME280;3226;42.162;24.756;2024-01-30T11:20:20;101845.88;;;3.46;52.05
6387;BME280;3226;42.162;24.756;2024-01-30T11:22:51;101848.47;;;3.46;51.95
6387;BME280;3226;42.162;24.756;2024-01-30T11:25:20;101845.38;;;3.74;52.68
6387;BME280;3226;42.162;24.756;2024-01-30T11:27:50;101853.34;;;4.09;52.68
6387;BME280;3226;42.162;24.756;2024-01-30T11:30:24;101850.47;;;4.23;52.45
6387;BME280;3226;42.162;24.756;2024-01-30T11:33:03;101846.19;;;4.20;51.47
6387;BME280;3226;42.162;24.756;2024-01-30T11:35:34;101830.53;;;4.27;50.49
6387;BME280;3226;42.162;24.756;2024-01-30T11:38:04;101826.31;;;4.62;49.94
6387;BME280;3226;42.162;24.756;2024-01-30T11:40:33;101815.56;;;4.77;50.04
6387;BME280;3226;42.162;24.756;2024-01-30T11:43:03;101821.72;;;5.10;49.57
6387;BME280;3226;42.162;24.756;2024-01-30T11:45:34;101816.75;;;4.62;48.31
6387;BME280;3226;42.162;24.756;2024-01-30T11:48:03;101791.78;;;4.17;49.68
6387;BME280;3226;42.162;24.756;2024-01-30T11:50:33;101802.88;;;4.26;50.26
6387;BME280;3226;42.162;24.756;2024-01-30T11:53:02;101799.50;;;4.22;48.65
6387;BME280;3226;42.162;24.756;2024-01-30T11:55:30;101796.22;;;4.12;49.36
6387;BME280;3226;42.162;24.756;2024-01-30T11:58:01;101753.53;;;3.86;49.57
6387;BME280;3226;42.162;24.756;2024-01-30T12:00:32;101797.78;;;4.21;48.92
6387;BME280;3226;42.162;24.756;2024-01-30T12:03:02;101786.44;;;4.25;48.82
6387;BME280;3226;42.162;24.756;2024-01-30T12:05:32;101781.38;;;4.60;48.46
6387;BME280;3226;42.162;24.756;2024-01-30T12:08:00;101782.88;;;4.31;48.29
6387;BME280;3226;42.162;24.756;2024-01-30T12:10:29;101779.25;;;3.97;48.67
6387;BME280;3226;42.162;24.756;2024-01-30T12:12:58;101738.63;;;3.98;48.73
6387;BME280;3226;42.162;24.756;2024-01-30T12:15:26;101772.88;;;4.12;48.64
6387;BME280;3226;42.162;24.756;2024-01-30T12:18:05;101755.66;;;4.10;49.34
6387;BME280;3226;42.162;24.756;2024-01-30T12:20:34;101764.34;;;4.07;49.07
6387;BME280;3226;42.162;24.756;2024-01-30T12:23:02;101755.91;;;4.37;48.88
6387;BME280;3226;42.162;24.756;2024-01-30T12:25:31;101747.88;;;4.49;48.33
6387;BME280;3226;42.162;24.756;2024-01-30T12:27:59;101725.91;;;4.62;48.20
6387;BME280;3226;42.162;24.756;2024-01-30T12:30:27;101741.78;;;4.86;47.38
6387;BME280;3226;42.162;24.756;2024-01-30T12:32:56;101742.94;;;4.74;46.86
6387;BME280;3226;42.162;24.756;2024-01-30T12:35:26;101738.94;;;4.61;47.45
6387;BME280;3226;42.162;24.756;2024-01-30T12:37:58;101742.53;;;4.90;46.84
6387;BME280;3226;42.162;24.756;2024-01-30T12:40:26;101741.47;;;4.99;46.86
6387;BME280;3226;42.162;24.756;2024-01-30T12:42:56;101693.09;;;4.24;48.32
6387;BME280;3226;42.162;24.756;2024-01-30T12:45:25;101723.47;;;4.56;47.47
6387;BME280;3226;42.162;24.756;2024-01-30T12:47:53;101709.28;;;4.33;47.83
6387;BME280;3226;42.162;24.756;2024-01-30T12:50:22;101729.31;;;4.66;47.33
6387;BME280;3226;42.162;24.756;2024-01-30T12:52:51;101737.84;;;4.33;48.21
6387;BME280;3226;42.162;24.756;2024-01-30T12:55:19;101732.78;;;4.27;48.31
6387;BME280;3226;42.162;24.756;2024-01-30T12:57:47;101730.72;;;4.42;48.25
6387;BME280;3226;42.162;24.756;2024-01-30T13:00:16;101733.31;;;4.42;48.02
6387;BME280;3226;42.162;24.756;2024-01-30T13:02:44;101724.53;;;4.47;47.86
6387;BME280;3226;42.162;24.756;2024-01-30T13:05:13;101671.50;;;4.23;47.64
6387;BME280;3226;42.162;24.756;2024-01-30T13:07:41;101730.25;;;4.98;46.52
6387;BME280;3226;42.162;24.756;2024-01-30T13:10:11;101730.63;;;4.83;47.53
6387;BME280;3226;42.162;24.756;2024-01-30T13:12:39;101708.19;;;4.80;47.21